Time;durP1;ratioP1;P1;durP2;ratioP2;P2;SDS_P1;SDS_P2;PMS_P1;PMS_P2;Temp;Humidity;BMP_temperature;BMP_pressure;BME280_temperature;BME280_humidity;BME280_pressure;Samples;Min_cycle;Max_cycle;Signal;HPM_P1;HPM_P2
2022/06/03 00:02:25;;;;;;;6.20;5.43;;;;;;;;;;5037512;28;20480;-84
2022/06/03 00:05:09;;;;;;;13.70;6.13;;;;;;;;;;5040806;28;20448;-84
2022/06/03 00:07:45;;;;;;;5.77;5.10;;;;;;;;;;5039036;28;20477;-83
2022/06/03 00:10:24;;;;;;;8.83;5.67;;;;;;;;;;5040707;28;20495;-84
2022/06/03 00:12:53;;;;;;;7.40;5.57;;;;;;;;;;5035104;28;20488;-84
2022/06/03 00:15:39;;;;;;;10.10;4.93;;;;;;;;;;5038890;28;20465;-84
2022/06/03 00:18:27;;;;;;;8.00;6.37;;;;;;;;;;5034781;28;20480;-84
2022/06/03 00:20:59;;;;;;;6.20;5.30;;;;;;;;;;5035609;28;20464;-83
2022/06/03 00:23:51;;;;;;;6.00;5.50;;;;;;;;;;5038183;28;20488;-83
2022/06/03 00:26:26;;;;;;;9.30;6.40;;;;;;;;;;5038674;28;20536;-83
2022/06/03 00:29:01;;;;;;;8.30;5.20;;;;;;;;;;5036468;28;20469;-84
2022/06/03 00:31:36;;;;;;;6.77;5.77;;;;;;;;;;5032975;28;20493;-83
2022/06/03 00:34:10;;;;;;;9.23;5.77;;;;;;;;;;5036915;28;20502;-85
2022/06/03 00:36:44;;;;;;;5.97;5.03;;;;;;;;;;5041986;28;20563;-86
2022/06/03 00:39:20;;;;;;;8.10;6.00;;;;;;;;;;5039386;28;20510;-85
2022/06/03 00:41:52;;;;;;;10.77;6.00;;;;;;;;;;5031672;28;20476;-83
2022/06/03 00:44:29;;;;;;;6.80;5.10;;;;;;;;;;5039318;28;20508;-83
2022/06/03 00:47:13;;;;;;;7.83;5.83;;;;;;;;;;5033201;28;20495;-84
2022/06/03 00:49:48;;;;;;;8.40;6.87;;;;;;;;;;5038031;28;20453;-83
2022/06/03 00:52:22;;;;;;;11.97;6.23;;;;;;;;;;5040255;28;20472;-84
2022/06/03 00:54:57;;;;;;;9.97;6.33;;;;;;;;;;5042183;28;20460;-84
2022/06/03 00:57:38;;;;;;;9.83;5.90;;;;;;;;;;5045238;28;20501;-83
2022/06/03 01:00:08;;;;;;;5.43;4.90;;;;;;;;;;5031541;28;20534;-83
2022/06/03 01:02:50;;;;;;;6.67;5.97;;;;;;;;;;5036697;28;20555;-83
2022/06/03 01:05:22;;;;;;;7.30;5.70;;;;;;;;;;5035560;28;20884;-84
2022/06/03 01:07:54;;;;;;;10.67;6.03;;;;;;;;;;5041119;28;20508;-83
2022/06/03 01:10:34;;;;;;;7.60;5.73;;;;;;;;;;5034920;28;20453;-86
2022/06/03 01:13:06;;;;;;;6.73;5.87;;;;;;;;;;5033556;28;20488;-83
2022/06/03 01:15:37;;;;;;;7.13;5.60;;;;;;;;;;5038343;28;20548;-84
2022/06/03 01:18:08;;;;;;;7.50;5.80;;;;;;;;;;5041597;28;20503;-84
2022/06/03 01:20:38;;;;;;;6.50;5.50;;;;;;;;;;5040658;28;20469;-86
2022/06/03 01:23:22;;;;;;;11.80;5.57;;;;;;;;;;5038045;28;20554;-84
2022/06/03 01:26:04;;;;;;;9.57;6.60;;;;;;;;;;5036275;28;20469;-84
2022/06/03 01:29:01;;;;;;;6.17;5.57;;;;;;;;;;5040469;28;20560;-83
2022/06/03 01:31:45;;;;;;;7.90;6.30;;;;;;;;;;5039680;28;20468;-83
2022/06/03 01:34:19;;;;;;;7.33;4.87;;;;;;;;;;5039456;28;20476;-85
2022/06/03 01:36:55;;;;;;;6.23;5.63;;;;;;;;;;5042693;28;20472;-84
2022/06/03 01:39:30;;;;;;;6.97;5.67;;;;;;;;;;5042354;28;20453;-82
2022/06/03 01:42:19;;;;;;;11.07;6.00;;;;;;;;;;5036822;28;20481;-84
2022/06/03 01:44:56;;;;;;;5.83;5.20;;;;;;;;;;5037751;28;21058;-85
2022/06/03 01:47:41;;;;;;;7.00;5.77;;;;;;;;;;5037461;28;20460;-83
2022/06/03 01:50:17;;;;;;;8.77;6.67;;;;;;;;;;5040623;28;20445;-83
2022/06/03 01:52:58;;;;;;;7.30;5.50;;;;;;;;;;5032014;28;20483;-84
2022/06/03 01:55:38;;;;;;;9.30;5.93;;;;;;;;;;5034489;28;20457;-84
2022/06/03 01:58:30;;;;;;;7.80;6.17;;;;;;;;;;5038186;28;20485;-86
2022/06/03 02:00:59;;;;;;;8.40;5.70;;;;;;;;;;5039738;28;20483;-83
2022/06/03 02:03:42;;;;;;;6.10;5.20;;;;;;;;;;5043430;28;20531;-84
2022/06/03 02:06:24;;;;;;;8.57;5.73;;;;;;;;;;5038453;28;20441;-87
2022/06/03 02:09:02;;;;;;;9.03;5.40;;;;;;;;;;5037231;28;20460;-85
2022/06/03 02:11:39;;;;;;;10.73;6.97;;;;;;;;;;5034929;28;20465;-84
2022/06/03 02:14:35;;;;;;;7.07;4.80;;;;;;;;;;5038070;28;20480;-83
2022/06/03 02:17:09;;;;;;;6.33;5.00;;;;;;;;;;4978588;28;20483;-86
2022/06/03 02:19:49;;;;;;;7.30;5.43;;;;;;;;;;5034670;28;20453;-87
2022/06/03 02:22:30;;;;;;;8.33;5.67;;;;;;;;;;5036133;28;20526;-84
2022/06/03 02:25:09;;;;;;;6.80;5.83;;;;;;;;;;5043712;28;20465;-86
2022/06/03 02:27:50;;;;;;;8.10;5.43;;;;;;;;;;5041910;28;20515;-83
2022/06/03 02:30:30;;;;;;;5.67;5.13;;;;;;;;;;5041494;28;20577;-83
2022/06/03 02:33:14;;;;;;;8.77;5.80;;;;;;;;;;5047715;28;20499;-84
2022/06/03 02:35:58;;;;;;;7.83;5.60;;;;;;;;;;5048556;28;20468;-83
2022/06/03 02:38:43;;;;;;;6.60;5.53;;;;;;;;;;5048003;28;20461;-83
2022/06/03 02:41:37;;;;;;;5.53;4.80;;;;;;;;;;5045370;28;20492;-85
2022/06/03 02:44:13;;;;;;;6.03;5.43;;;;;;;;;;5044010;28;20492;-83
2022/06/03 02:46:59;;;;;;;9.33;6.00;;;;;;;;;;5041588;28;20468;-83
2022/06/03 02:49:45;;;;;;;8.87;5.87;;;;;;;;;;5043308;28;20507;-85
2022/06/03 02:52:18;;;;;;;8.40;5.97;;;;;;;;;;5038326;28;20469;-85
2022/06/03 02:55:15;;;;;;;6.60;4.80;;;;;;;;;;5153692;23;21070;-83
2022/06/03 02:57:48;;;;;;;8.30;6.30;;;;;;;;;;5017516;28;20474;-84
2022/06/03 03:00:24;;;;;;;7.43;5.60;;;;;;;;;;5047817;28;20467;-83
2022/06/03 03:02:55;;;;;;;10.33;6.47;;;;;;;;;;5058919;28;20467;-83
2022/06/03 03:05:33;;;;;;;6.97;5.90;;;;;;;;;;5041330;28;20514;-83
2022/06/03 03:08:17;;;;;;;7.73;5.80;;;;;;;;;;5041369;28;20468;-83
2022/06/03 03:10:50;;;;;;;7.77;5.83;;;;;;;;;;5040563;28;20461;-86
2022/06/03 03:13:27;;;;;;;7.53;5.50;;;;;;;;;;5041473;28;20590;-83
2022/06/03 03:16:04;;;;;;;6.33;5.73;;;;;;;;;;5041042;28;20509;-85
2022/06/03 03:18:49;;;;;;;8.80;5.80;;;;;;;;;;5034498;28;20461;-83
2022/06/03 03:21:22;;;;;;;8.70;6.10;;;;;;;;;;5038307;28;20438;-83
2022/06/03 03:24:18;;;;;;;6.90;5.60;;;;;;;;;;5042837;28;20493;-83
2022/06/03 03:26:53;;;;;;;7.13;5.57;;;;;;;;;;5039024;28;20978;-85
2022/06/03 03:29:35;;;;;;;5.70;5.10;;;;;;;;;;5037321;28;20465;-84
2022/06/03 03:32:16;;;;;;;6.80;5.43;;;;;;;;;;5035371;28;20495;-83
2022/06/03 03:35:05;;;;;;;7.50;5.37;;;;;;;;;;5040041;28;20473;-84
2022/06/03 03:37:50;;;;;;;8.37;5.60;;;;;;;;;;5040364;28;20474;-83
2022/06/03 03:40:43;;;;;;;6.73;5.80;;;;;;;;;;5042015;28;20465;-84
2022/06/03 03:43:27;;;;;;;10.77;6.37;;;;;;;;;;5005457;28;20477;-84
2022/06/03 03:46:03;;;;;;;7.53;5.40;;;;;;;;;;5039514;28;20446;-83
2022/06/03 03:48:45;;;;;;;8.47;5.30;;;;;;;;;;5042285;28;20465;-84
2022/06/03 03:51:14;;;;;;;8.10;6.30;;;;;;;;;;5037906;28;20460;-85
2022/06/03 03:53:53;;;;;;;7.73;5.50;;;;;;;;;;5039262;28;20531;-82
2022/06/03 03:56:46;;;;;;;8.30;6.20;;;;;;;;;;5040186;28;20484;-84
2022/06/03 03:59:31;;;;;;;8.47;6.90;;;;;;;;;;5040906;28;20821;-84
2022/06/03 04:02:28;;;;;;;8.17;6.03;;;;;;;;;;5040361;28;20566;-84
2022/06/03 04:05:09;;;;;;;8.10;5.70;;;;;;;;;;5001023;28;20501;-85
2022/06/03 04:07:52;;;;;;;15.60;7.23;;;;;;;;;;5042150;28;20479;-83
2022/06/03 04:10:38;;;;;;;8.60;6.23;;;;;;;;;;5034814;28;20483;-84
2022/06/03 04:13:16;;;;;;;9.60;5.97;;;;;;;;;;5036923;28;20481;-84
2022/06/03 04:15:57;;;;;;;8.43;6.60;;;;;;;;;;5045704;28;20464;-83
2022/06/03 04:18:37;;;;;;;7.23;6.53;;;;;;;;;;5046373;28;20472;-85
2022/06/03 04:21:22;;;;;;;10.50;6.90;;;;;;;;;;5043818;28;20491;-84
2022/06/03 04:24:06;;;;;;;11.53;6.40;;;;;;;;;;5043823;28;20607;-83
2022/06/03 04:26:43;;;;;;;8.80;6.53;;;;;;;;;;5027010;28;20476;-84
2022/06/03 04:32:20;;;;;;;9.47;7.37;;;;;;;;;;5037055;28;20462;-85
2022/06/03 04:35:02;;;;;;;7.97;6.93;;;;;;;;;;5043550;28;20562;-84
2022/06/03 04:37:46;;;;;;;12.40;7.50;;;;;;;;;;5041883;28;20483;-83
2022/06/03 04:40:29;;;;;;;10.70;7.80;;;;;;;;;;5040055;28;20471;-83
2022/06/03 04:43:14;;;;;;;11.47;7.60;;;;;;;;;;5045499;28;20476;-84
2022/06/03 04:46:06;;;;;;;15.47;9.93;;;;;;;;;;5043686;28;20934;-87
2022/06/03 04:48:52;;;;;;;14.70;8.53;;;;;;;;;;5044126;28;20543;-86
2022/06/03 04:51:43;;;;;;;13.83;9.47;;;;;;;;;;5038251;28;20440;-83
2022/06/03 04:54:28;;;;;;;14.67;8.80;;;;;;;;;;5045769;28;20500;-83
2022/06/03 04:57:09;;;;;;;15.77;9.50;;;;;;;;;;5042861;28;20491;-85
2022/06/03 04:59:59;;;;;;;14.87;10.00;;;;;;;;;;5046293;28;21032;-83
2022/06/03 05:02:45;;;;;;;16.17;12.20;;;;;;;;;;5042643;28;20495;-84
2022/06/03 05:05:26;;;;;;;13.03;9.73;;;;;;;;;;5041466;28;20487;-85
2022/06/03 05:08:13;;;;;;;20.13;12.77;;;;;;;;;;5043170;28;20539;-83
2022/06/03 05:11:09;;;;;;;18.03;11.90;;;;;;;;;;5042568;28;20453;-84
2022/06/03 05:13:50;;;;;;;17.60;13.60;;;;;;;;;;5040898;28;20484;-83
2022/06/03 05:16:37;;;;;;;26.00;14.67;;;;;;;;;;5044289;28;20465;-84
2022/06/03 05:19:18;;;;;;;19.37;13.93;;;;;;;;;;5044597;28;20464;-83
2022/06/03 05:22:02;;;;;;;23.03;14.50;;;;;;;;;;5033768;28;20530;-83
2022/06/03 05:24:42;;;;;;;21.70;14.53;;;;;;;;;;5030124;28;20519;-83
2022/06/03 05:27:37;;;;;;;20.07;13.63;;;;;;;;;;5035003;28;20481;-84
2022/06/03 05:30:12;;;;;;;27.47;14.70;;;;;;;;;;5034362;28;20812;-84
2022/06/03 05:33:05;;;;;;;17.00;12.30;;;;;;;;;;5031914;28;20463;-83
2022/06/03 05:35:41;;;;;;;19.47;13.73;;;;;;;;;;5033561;28;20808;-83
2022/06/03 05:38:26;;;;;;;18.33;13.70;;;;;;;;;;5036508;28;20886;-83
2022/06/03 05:42:23;;;;;;;18.57;13.60;;;;;;;;;;5038790;28;20456;-83
2022/06/03 05:44:05;;;;;;;19.10;12.50;;;;;;;;;;5034074;28;20531;-83
2022/06/03 05:46:36;;;;;;;19.43;12.97;;;;;;;;;;5032230;28;20467;-82
2022/06/03 05:49:07;;;;;;;18.33;12.63;;;;;;;;;;5044226;28;20477;-83
2022/06/03 05:51:46;;;;;;;23.93;12.70;;;;;;;;;;5033651;28;20484;-82
2022/06/03 05:54:15;;;;;;;22.80;11.73;;;;;;;;;;5026512;28;20494;-87
2022/06/03 05:56:46;;;;;;;22.87;11.50;;;;;;;;;;5033227;28;21044;-83
2022/06/03 05:59:16;;;;;;;16.93;12.10;;;;;;;;;;5030326;28;21063;-83
2022/06/03 06:01:49;;;;;;;15.00;11.60;;;;;;;;;;5030447;28;20522;-84
2022/06/03 06:04:20;;;;;;;16.63;11.50;;;;;;;;;;5035756;28;20485;-82
2022/06/03 06:06:56;;;;;;;12.93;9.23;;;;;;;;;;5033741;28;20916;-84
2022/06/03 06:09:31;;;;;;;12.17;10.80;;;;;;;;;;5046547;28;20455;-83
2022/06/03 06:12:04;;;;;;;12.13;8.83;;;;;;;;;;5042601;28;20472;-83
2022/06/03 06:14:33;;;;;;;12.73;8.70;;;;;;;;;;5037904;28;20473;-83
2022/06/03 06:17:02;;;;;;;12.20;8.97;;;;;;;;;;5043217;28;20472;-83
2022/06/03 06:19:37;;;;;;;14.00;8.10;;;;;;;;;;5039247;28;20517;-83
2022/06/03 06:22:12;;;;;;;9.27;7.73;;;;;;;;;;5042504;28;20473;-82
2022/06/03 06:24:54;;;;;;;19.67;8.10;;;;;;;;;;5038664;28;20496;-84
2022/06/03 06:27:32;;;;;;;10.87;7.60;;;;;;;;;;5036652;28;21063;-84
2022/06/03 06:30:09;;;;;;;16.47;8.40;;;;;;;;;;5039596;28;20498;-84
2022/06/03 06:32:59;;;;;;;10.47;7.30;;;;;;;;;;5038549;28;20468;-84
2022/06/03 06:35:40;;;;;;;10.13;6.37;;;;;;;;;;5027465;28;20457;-83
2022/06/03 06:38:12;;;;;;;9.77;6.43;;;;;;;;;;5032417;28;20473;-84
2022/06/03 06:40:42;;;;;;;7.63;6.43;;;;;;;;;;5042054;28;20450;-84
2022/06/03 06:43:18;;;;;;;7.87;5.53;;;;;;;;;;5050451;28;20998;-83
2022/06/03 06:45:51;;;;;;;7.37;5.57;;;;;;;;;;5039299;28;21023;-82
2022/06/03 06:48:24;;;;;;;8.93;5.87;;;;;;;;;;5041255;28;20498;-83
2022/06/03 06:50:52;;;;;;;7.10;5.70;;;;;;;;;;5048197;28;20981;-84
2022/06/03 06:53:24;;;;;;;8.63;6.20;;;;;;;;;;5039925;28;20446;-84
2022/06/03 06:55:54;;;;;;;7.93;5.23;;;;;;;;;;5042311;28;20487;-84
2022/06/03 06:58:25;;;;;;;6.80;4.70;;;;;;;;;;5041261;28;20472;-84
2022/06/03 07:00:52;;;;;;;5.30;4.40;;;;;;;;;;5044829;28;20472;-86
2022/06/03 07:03:21;;;;;;;8.83;5.00;;;;;;;;;;5040523;28;20887;-85
2022/06/03 07:05:50;;;;;;;9.37;5.27;;;;;;;;;;5040362;28;21019;-84
2022/06/03 07:08:19;;;;;;;4.33;3.93;;;;;;;;;;5040298;28;20447;-84
2022/06/03 07:10:49;;;;;;;6.20;5.33;;;;;;;;;;5042983;28;20445;-83
2022/06/03 07:13:18;;;;;;;5.57;4.60;;;;;;;;;;5045242;28;20473;-83
2022/06/03 07:15:52;;;;;;;4.80;3.80;;;;;;;;;;5043635;28;20455;-86
2022/06/03 07:21:09;;;;;;;6.53;5.07;;;;;;;;;;5032649;28;20471;-84
2022/06/03 07:23:38;;;;;;;5.10;3.63;;;;;;;;;;5037364;28;20503;-85
2022/06/03 07:26:09;;;;;;;7.00;4.23;;;;;;;;;;5035348;28;20435;-85
2022/06/03 07:28:40;;;;;;;6.80;3.80;;;;;;;;;;5042840;28;20563;-84
2022/06/03 07:31:11;;;;;;;9.80;5.87;;;;;;;;;;5043031;28;20425;-85
2022/06/03 07:33:41;;;;;;;6.87;4.60;;;;;;;;;;5041047;28;20523;-84
2022/06/03 07:36:11;;;;;;;4.50;4.10;;;;;;;;;;5044185;28;20452;-87
2022/06/03 07:38:41;;;;;;;5.10;4.20;;;;;;;;;;5057948;28;20466;-83
2022/06/03 07:41:14;;;;;;;6.87;3.10;;;;;;;;;;5044349;28;20448;-83
2022/06/03 07:43:42;;;;;;;3.40;3.10;;;;;;;;;;5042546;28;20468;-87
2022/06/03 07:46:12;;;;;;;5.13;4.30;;;;;;;;;;5043943;28;20441;-85
2022/06/03 07:48:39;;;;;;;4.70;3.40;;;;;;;;;;5035291;28;20894;-86
2022/06/03 07:51:07;;;;;;;7.43;3.80;;;;;;;;;;5049471;28;20448;-85
2022/06/03 07:53:40;;;;;;;7.47;4.03;;;;;;;;;;5046023;28;20492;-85
2022/06/03 07:56:06;;;;;;;7.30;5.03;;;;;;;;;;5056712;28;20425;-84
2022/06/03 07:58:37;;;;;;;5.67;4.60;;;;;;;;;;5039117;28;20814;-84
2022/06/03 08:01:04;;;;;;;5.37;3.43;;;;;;;;;;5039119;28;20957;-85
2022/06/03 08:03:34;;;;;;;5.23;3.37;;;;;;;;;;5046350;28;20525;-86
2022/06/03 08:06:02;;;;;;;3.37;3.00;;;;;;;;;;5039330;28;20450;-85
2022/06/03 08:11:21;;;;;;;6.83;3.47;;;;;;;;;;5043726;28;20467;-85
2022/06/03 08:13:50;;;;;;;5.70;2.80;;;;;;;;;;5036838;28;20480;-84
2022/06/03 08:16:25;;;;;;;5.80;3.20;;;;;;;;;;5039627;28;20466;-83
2022/06/03 08:18:52;;;;;;;4.27;3.87;;;;;;;;;;5048346;28;20465;-85
2022/06/03 08:21:21;;;;;;;7.53;3.37;;;;;;;;;;5040608;28;20460;-85
2022/06/03 08:23:48;;;;;;;4.03;3.63;;;;;;;;;;5044467;28;20484;-84
2022/06/03 08:26:16;;;;;;;4.33;2.60;;;;;;;;;;5047433;28;20490;-84
2022/06/03 08:28:45;;;;;;;8.80;3.53;;;;;;;;;;5053236;28;20521;-86
2022/06/03 08:31:13;;;;;;;6.13;4.20;;;;;;;;;;5037196;28;20464;-82
2022/06/03 08:33:41;;;;;;;8.87;4.60;;;;;;;;;;5033275;28;20487;-85
2022/06/03 08:36:08;;;;;;;5.00;3.60;;;;;;;;;;5038710;28;20455;-85
2022/06/03 08:38:38;;;;;;;4.80;4.20;;;;;;;;;;5041177;28;20451;-85
2022/06/03 08:41:31;;;;;;;4.27;3.50;;;;;;;;;;5042014;28;21036;-86
2022/06/03 08:44:07;;;;;;;5.57;4.13;;;;;;;;;;5036910;28;20480;-84
2022/06/03 08:46:37;;;;;;;6.00;3.47;;;;;;;;;;5044511;28;20472;-85
2022/06/03 08:49:07;;;;;;;5.00;3.60;;;;;;;;;;5035604;28;20457;-86
2022/06/03 08:51:35;;;;;;;5.10;3.83;;;;;;;;;;5038880;28;20465;-85
2022/06/03 08:54:04;;;;;;;4.17;3.30;;;;;;;;;;5042794;28;20530;-85
2022/06/03 08:56:32;;;;;;;3.50;3.10;;;;;;;;;;5038639;28;20813;-85
2022/06/03 08:59:01;;;;;;;6.20;3.43;;;;;;;;;;5039477;28;20464;-85
2022/06/03 09:01:31;;;;;;;4.43;3.60;;;;;;;;;;5029412;28;20499;-84
2022/06/03 09:04:04;;;;;;;4.43;2.87;;;;;;;;;;5039353;28;21028;-84
2022/06/03 09:06:35;;;;;;;5.20;3.30;;;;;;;;;;5042382;28;20472;-84
2022/06/03 09:11:38;;;;;;;6.97;3.80;;;;;;;;;;5079414;22;20518;-86
2022/06/03 09:14:06;;;;;;;4.80;3.30;;;;;;;;;;5044095;28;20472;-85
2022/06/03 09:16:34;;;;;;;10.53;3.67;;;;;;;;;;5051068;28;20480;-88
2022/06/03 09:19:05;;;;;;;5.73;3.17;;;;;;;;;;5048762;28;20465;-86
2022/06/03 09:21:33;;;;;;;3.43;2.60;;;;;;;;;;5028631;28;20903;-86
2022/06/03 09:24:02;;;;;;;5.80;3.20;;;;;;;;;;5032959;28;20491;-86
2022/06/03 09:26:29;;;;;;;3.27;2.97;;;;;;;;;;5066183;22;20459;-82
2022/06/03 09:28:57;;;;;;;3.97;3.17;;;;;;;;;;5062649;28;20766;-82
2022/06/03 09:31:24;;;;;;;3.17;2.90;;;;;;;;;;5061164;28;21016;-82
2022/06/03 09:33:50;;;;;;;2.50;2.20;;;;;;;;;;5061274;28;20470;-82
2022/06/03 09:36:20;;;;;;;5.20;3.23;;;;;;;;;;5045251;28;20483;-83
2022/06/03 09:38:48;;;;;;;3.97;2.63;;;;;;;;;;5042373;28;20463;-81
2022/06/03 09:41:16;;;;;;;2.90;2.60;;;;;;;;;;5040023;28;20540;-80
2022/06/03 09:43:44;;;;;;;2.33;2.10;;;;;;;;;;5041276;28;21038;-82
2022/06/03 09:46:12;;;;;;;3.10;2.20;;;;;;;;;;5043413;28;20460;-82
2022/06/03 09:48:40;;;;;;;3.20;2.37;;;;;;;;;;5041624;28;20539;-81
2022/06/03 09:51:09;;;;;;;4.10;2.50;;;;;;;;;;5039795;28;20455;-84
2022/06/03 09:53:40;;;;;;;2.50;1.90;;;;;;;;;;5039718;28;20595;-81
2022/06/03 09:56:07;;;;;;;3.20;2.37;;;;;;;;;;5041115;28;20512;-83
2022/06/03 09:58:34;;;;;;;7.43;2.37;;;;;;;;;;5042255;28;20466;-85
2022/06/03 10:01:02;;;;;;;3.00;1.87;;;;;;;;;;5042359;28;20463;-83
2022/06/03 10:03:29;;;;;;;5.47;2.33;;;;;;;;;;5040378;28;20504;-83
2022/06/03 10:05:56;;;;;;;2.07;1.87;;;;;;;;;;5040508;28;20559;-83
2022/06/03 10:08:24;;;;;;;2.90;1.47;;;;;;;;;;5039891;28;20479;-83
2022/06/03 10:13:38;;;;;;;3.60;2.10;;;;;;;;;;5041158;28;20511;-83
2022/06/03 10:16:07;;;;;;;4.80;2.17;;;;;;;;;;5040457;28;20498;-85
2022/06/03 10:18:36;;;;;;;2.67;2.03;;;;;;;;;;5041212;28;20832;-82
2022/06/03 10:21:20;;;;;;;4.87;2.40;;;;;;;;;;5041853;28;20505;-83
2022/06/03 10:23:48;;;;;;;2.10;1.90;;;;;;;;;;5040177;28;20538;-82
2022/06/03 10:26:20;;;;;;;2.83;2.53;;;;;;;;;;5041854;28;20494;-83
2022/06/03 10:28:48;;;;;;;4.63;2.63;;;;;;;;;;5040963;28;20476;-82
2022/06/03 10:31:16;;;;;;;2.60;2.40;;;;;;;;;;5040859;28;20460;-83
2022/06/03 10:33:52;;;;;;;5.77;2.53;;;;;;;;;;5041197;28;20464;-82
2022/06/03 10:36:18;;;;;;;3.83;3.27;;;;;;;;;;5038795;28;20494;-82
2022/06/03 10:38:48;;;;;;;2.77;2.60;;;;;;;;;;5040405;28;20528;-82
2022/06/03 10:41:15;;;;;;;2.60;1.93;;;;;;;;;;5041062;28;20448;-81
2022/06/03 10:43:43;;;;;;;2.57;2.20;;;;;;;;;;5041550;28;20468;-81
2022/06/03 10:46:10;;;;;;;2.43;2.23;;;;;;;;;;5039020;28;20491;-81
2022/06/03 10:48:36;;;;;;;4.37;3.00;;;;;;;;;;5039286;28;20459;-82
2022/06/03 10:51:16;;;;;;;2.97;2.77;;;;;;;;;;5040120;28;20979;-83
2022/06/03 11:01:59;;;;;;;2.20;2.00;;;;;;;;;;5040427;28;20573;-82
2022/06/03 11:04:29;;;;;;;5.63;2.90;;;;;;;;;;5041482;28;20492;-80
2022/06/03 11:06:56;;;;;;;2.80;1.77;;;;;;;;;;5041572;28;20493;-83
2022/06/03 11:09:23;;;;;;;5.57;3.13;;;;;;;;;;5042667;28;20551;-81
2022/06/03 11:11:51;;;;;;;4.30;2.30;;;;;;;;;;5036654;28;20484;-80
2022/06/03 11:14:29;;;;;;;2.30;2.10;;;;;;;;;;5041894;28;20948;-82
2022/06/03 11:17:01;;;;;;;3.70;2.00;;;;;;;;;;5040551;28;20480;-81
2022/06/03 11:19:30;;;;;;;3.00;2.80;;;;;;;;;;5041606;28;20892;-80
2022/06/03 11:22:11;;;;;;;1.70;1.60;;;;;;;;;;5041093;28;20932;-83
2022/06/03 11:24:37;;;;;;;4.63;2.50;;;;;;;;;;5043483;28;21023;-80
2022/06/03 11:27:05;;;;;;;4.73;2.47;;;;;;;;;;5045261;28;20542;-82
2022/06/03 11:29:37;;;;;;;2.87;2.40;;;;;;;;;;5044115;28;20531;-81
2022/06/03 11:32:04;;;;;;;2.97;2.63;;;;;;;;;;5043513;28;20483;-83
2022/06/03 11:34:33;;;;;;;2.13;1.93;;;;;;;;;;5047299;28;20460;-81
2022/06/03 11:37:02;;;;;;;2.80;2.20;;;;;;;;;;5044807;28;20526;-83
2022/06/03 11:39:30;;;;;;;2.47;1.90;;;;;;;;;;5046580;28;21356;-83
2022/06/03 11:41:59;;;;;;;3.00;2.67;;;;;;;;;;5046310;28;20479;-82
2022/06/03 11:44:30;;;;;;;2.90;2.17;;;;;;;;;;5046621;28;20456;-83
2022/06/03 11:46:59;;;;;;;3.73;2.53;;;;;;;;;;5046800;28;20483;-82
2022/06/03 11:49:26;;;;;;;2.20;2.00;;;;;;;;;;5048269;28;20971;-84
2022/06/03 11:51:52;;;;;;;2.20;1.97;;;;;;;;;;5047423;28;20575;-82
2022/06/03 11:54:21;;;;;;;2.40;1.90;;;;;;;;;;5045744;28;21713;-84
2022/06/03 11:56:49;;;;;;;1.83;1.70;;;;;;;;;;5040597;28;20483;-83
2022/06/03 11:59:16;;;;;;;3.30;2.00;;;;;;;;;;5047218;28;21029;-82
2022/06/03 12:01:45;;;;;;;2.13;2.00;;;;;;;;;;5046270;28;20475;-83
2022/06/03 12:04:17;;;;;;;5.17;2.53;;;;;;;;;;5047177;28;20531;-81
2022/06/03 12:06:46;;;;;;;3.10;2.20;;;;;;;;;;5045145;28;20472;-81
2022/06/03 12:09:18;;;;;;;4.50;2.27;;;;;;;;;;5047682;28;20978;-81
2022/06/03 12:14:35;;;;;;;2.33;2.13;;;;;;;;;;5047873;28;21011;-84
2022/06/03 12:17:19;;;;;;;6.13;2.43;;;;;;;;;;5049810;28;20482;-84
2022/06/03 12:19:48;;;;;;;2.60;2.40;;;;;;;;;;5046458;28;20475;-84
2022/06/03 12:22:19;;;;;;;3.00;2.40;;;;;;;;;;5046488;28;20566;-79
2022/06/03 12:24:49;;;;;;;2.03;1.83;;;;;;;;;;5045804;28;20927;-83
2022/06/03 12:27:18;;;;;;;3.90;2.80;;;;;;;;;;5045560;28;20511;-82
2022/06/03 12:29:48;;;;;;;2.43;2.23;;;;;;;;;;5048044;28;20834;-81
2022/06/03 12:32:16;;;;;;;4.40;3.07;;;;;;;;;;5047597;28;20479;-82
2022/06/03 12:34:43;;;;;;;3.20;2.50;;;;;;;;;;5045732;28;20464;-84
2022/06/03 12:37:24;;;;;;;2.77;2.57;;;;;;;;;;5043446;28;20487;-84
2022/06/03 12:39:58;;;;;;;2.50;2.03;;;;;;;;;;5047867;28;20510;-82
2022/06/03 12:42:38;;;;;;;2.80;2.53;;;;;;;;;;5047967;28;20555;-81
2022/06/03 12:45:34;;;;;;;2.50;2.30;;;;;;;;;;5046090;28;20564;-82
2022/06/03 12:48:01;;;;;;;5.50;2.73;;;;;;;;;;5046440;28;20475;-84
2022/06/03 12:50:45;;;;;;;3.47;2.47;;;;;;;;;;5046648;28;20457;-84
2022/06/03 12:53:26;;;;;;;3.23;2.13;;;;;;;;;;5047980;28;20526;-83
2022/06/03 12:55:55;;;;;;;3.23;2.07;;;;;;;;;;5044559;28;20539;-82
2022/06/03 12:58:38;;;;;;;4.07;2.73;;;;;;;;;;5045043;28;20498;-82
2022/06/03 13:01:06;;;;;;;2.00;1.90;;;;;;;;;;5046361;28;20987;-84
2022/06/03 13:03:39;;;;;;;4.60;3.10;;;;;;;;;;5045998;28;20555;-84
2022/06/03 13:06:08;;;;;;;3.40;2.40;;;;;;;;;;5048233;28;20510;-81
2022/06/03 13:09:34;;;;;;;3.07;2.50;;;;;;;;;;5048178;28;20659;-81
2022/06/03 13:11:44;;;;;;;2.50;2.10;;;;;;;;;;5047847;28;20883;-82
2022/06/03 13:14:29;;;;;;;2.77;2.57;;;;;;;;;;5048740;28;20453;-85
2022/06/03 13:16:56;;;;;;;3.80;2.50;;;;;;;;;;5047244;28;20472;-81
2022/06/03 13:19:44;;;;;;;3.83;2.57;;;;;;;;;;5048440;28;20461;-84
2022/06/03 13:22:17;;;;;;;4.43;2.50;;;;;;;;;;5043067;28;20468;-84
2022/06/03 13:25:03;;;;;;;3.47;2.00;;;;;;;;;;5050533;28;20459;-79
2022/06/03 13:27:33;;;;;;;2.43;2.23;;;;;;;;;;5045868;28;20538;-82
2022/06/03 13:30:04;;;;;;;2.60;2.40;;;;;;;;;;5042397;28;20484;-83
2022/06/03 13:32:49;;;;;;;4.03;2.30;;;;;;;;;;5042730;28;20476;-82
2022/06/03 13:35:20;;;;;;;2.70;2.13;;;;;;;;;;5042104;28;20889;-82
2022/06/03 13:37:49;;;;;;;3.30;2.20;;;;;;;;;;5043055;28;20467;-82
2022/06/03 13:40:21;;;;;;;2.50;2.30;;;;;;;;;;5041273;28;20486;-81
2022/06/03 13:43:01;;;;;;;4.30;2.43;;;;;;;;;;5039095;28;20483;-81
2022/06/03 13:45:41;;;;;;;4.40;2.70;;;;;;;;;;5043147;28;20487;-80
2022/06/03 13:48:12;;;;;;;2.20;2.00;;;;;;;;;;5042808;28;20515;-81
2022/06/03 13:50:39;;;;;;;2.77;2.43;;;;;;;;;;5043174;28;20968;-83
2022/06/03 13:53:07;;;;;;;3.70;3.40;;;;;;;;;;5042903;28;20861;-84
2022/06/03 13:55:42;;;;;;;2.20;2.00;;;;;;;;;;5039610;28;21004;-81
2022/06/03 13:58:12;;;;;;;3.50;2.20;;;;;;;;;;5043080;28;20484;-81
2022/06/03 14:00:40;;;;;;;2.53;2.10;;;;;;;;;;5041576;28;20461;-80
2022/06/03 14:03:10;;;;;;;5.93;3.33;;;;;;;;;;5041101;28;20897;-82
2022/06/03 14:05:38;;;;;;;4.37;2.60;;;;;;;;;;5043611;28;20495;-84
2022/06/03 14:08:11;;;;;;;2.90;2.43;;;;;;;;;;5038983;28;20594;-83
2022/06/03 14:10:42;;;;;;;2.40;2.20;;;;;;;;;;5039811;28;20459;-82
2022/06/03 14:13:18;;;;;;;2.07;1.90;;;;;;;;;;5043509;28;20515;-80
2022/06/03 14:15:50;;;;;;;2.63;2.07;;;;;;;;;;5042195;28;21000;-82
2022/06/03 14:18:31;;;;;;;4.00;3.13;;;;;;;;;;5040866;28;20468;-84
2022/06/03 14:20:57;;;;;;;2.43;2.20;;;;;;;;;;5041441;28;20461;-82
2022/06/03 14:23:25;;;;;;;2.83;2.63;;;;;;;;;;5039415;28;20479;-85
2022/06/03 14:25:53;;;;;;;3.53;2.77;;;;;;;;;;5042082;28;20488;-83
2022/06/03 14:28:26;;;;;;;3.10;2.40;;;;;;;;;;5041850;28;20571;-83
2022/06/03 14:30:55;;;;;;;2.77;2.50;;;;;;;;;;5042879;28;20464;-81
2022/06/03 14:33:23;;;;;;;3.17;2.53;;;;;;;;;;5042820;28;20894;-82
2022/06/03 14:35:52;;;;;;;4.23;2.57;;;;;;;;;;5040043;28;20473;-83
2022/06/03 14:38:22;;;;;;;3.40;2.10;;;;;;;;;;5039736;28;20559;-82
2022/06/03 14:40:49;;;;;;;3.07;2.30;;;;;;;;;;5042319;28;20509;-82
2022/06/03 14:43:23;;;;;;;2.37;2.20;;;;;;;;;;5040876;28;21005;-84
2022/06/03 14:45:52;;;;;;;3.10;2.90;;;;;;;;;;5041206;28;20988;-85
2022/06/03 14:48:21;;;;;;;1.93;1.83;;;;;;;;;;5039083;28;20538;-80
2022/06/03 14:50:52;;;;;;;2.20;2.00;;;;;;;;;;5041641;28;21296;-82
2022/06/03 14:53:21;;;;;;;4.20;2.33;;;;;;;;;;5040741;28;20472;-82
2022/06/03 14:55:52;;;;;;;3.03;1.93;;;;;;;;;;5042298;28;20472;-84
2022/06/03 14:58:22;;;;;;;3.67;2.20;;;;;;;;;;5040335;28;20469;-85
2022/06/03 15:00:56;;;;;;;3.10;2.80;;;;;;;;;;5042423;28;20483;-83
2022/06/03 15:03:25;;;;;;;2.97;2.57;;;;;;;;;;5040568;28;20464;-82
2022/06/03 15:05:53;;;;;;;3.63;2.87;;;;;;;;;;5040808;28;20493;-83
2022/06/03 15:08:22;;;;;;;3.23;2.30;;;;;;;;;;5037949;28;20861;-82
2022/06/03 15:10:51;;;;;;;2.63;2.43;;;;;;;;;;5040102;28;21011;-81
2022/06/03 15:13:24;;;;;;;4.13;2.20;;;;;;;;;;5041614;28;20547;-82
2022/06/03 15:15:51;;;;;;;2.10;1.90;;;;;;;;;;5039917;28;20471;-82
2022/06/03 15:18:19;;;;;;;4.93;2.00;;;;;;;;;;5041516;28;20491;-86
2022/06/03 15:20:56;;;;;;;1.90;1.80;;;;;;;;;;5039314;28;20456;-81
2022/06/03 15:23:24;;;;;;;52.70;7.80;;;;;;;;;;5039537;28;20475;-81
2022/06/03 15:25:54;;;;;;;4.43;2.03;;;;;;;;;;5041129;28;21099;-81
2022/06/03 15:28:21;;;;;;;3.00;2.80;;;;;;;;;;5039707;28;20534;-84
2022/06/03 15:30:50;;;;;;;3.90;1.90;;;;;;;;;;5040525;28;20467;-81
2022/06/03 15:33:20;;;;;;;4.00;1.83;;;;;;;;;;5040619;28;20487;-81
2022/06/03 15:35:47;;;;;;;2.53;2.20;;;;;;;;;;5041827;28;20476;-81
2022/06/03 15:38:14;;;;;;;2.67;2.30;;;;;;;;;;5041183;28;20468;-81
2022/06/03 15:40:42;;;;;;;2.23;2.10;;;;;;;;;;5041286;28;20465;-82
2022/06/03 15:43:12;;;;;;;2.87;2.10;;;;;;;;;;5039804;28;20567;-84
2022/06/03 15:45:48;;;;;;;1.93;1.83;;;;;;;;;;5040935;28;20909;-84
2022/06/03 15:48:16;;;;;;;2.90;2.00;;;;;;;;;;5040482;28;20476;-81
2022/06/03 15:50:48;;;;;;;3.83;1.67;;;;;;;;;;5039958;28;20447;-81